sensor_id;sensor_type;location;lat;lon;timestamp;P1;durP1;ratioP1;P2;durP2;ratioP2
63032;SDS011;49121;38.932;-9.018;2023-03-03T00:00:52;11.85;;;4.90;;
63032;SDS011;49121;38.932;-9.018;2023-03-03T00:02:53;8.88;;;5.05;;
63032;SDS011;49121;38.932;-9.018;2023-03-03T00:04:57;7.25;;;4.47;;
63032;SDS011;49121;38.932;-9.018;2023-03-03T00:06:57;10.05;;;5.13;;
63032;SDS011;49121;38.932;-9.018;2023-03-03T00:08:58;7.18;;;4.32;;
63032;SDS011;49121;38.932;-9.018;2023-03-03T00:10:58;11.55;;;4.43;;
63032;SDS011;49121;38.932;-9.018;2023-03-03T00:13:00;8.70;;;4.20;;
63032;SDS011;49121;38.932;-9.018;2023-03-03T00:15:00;6.85;;;4.35;;
63032;SDS011;49121;38.932;-9.018;2023-03-03T00:17:01;6.65;;;4.38;;
63032;SDS011;49121;38.932;-9.018;2023-03-03T00:19:18;11.57;;;4.93;;
63032;SDS011;49121;38.932;-9.018;2023-03-03T00:25:32;9.70;;;4.22;;
63032;SDS011;49121;38.932;-9.018;2023-03-03T00:27:34;8.07;;;4.15;;
63032;SDS011;49121;38.932;-9.018;2023-03-03T00:29:36;9.63;;;4.28;;
63032;SDS011;49121;38.932;-9.018;2023-03-03T00:31:40;10.18;;;4.60;;
63032;SDS011;49121;38.932;-9.018;2023-03-03T00:33:50;7.35;;;4.65;;
63032;SDS011;49121;38.932;-9.018;2023-03-03T00:35:55;7.57;;;4.28;;
63032;SDS011;49121;38.932;-9.018;2023-03-03T00:37:57;9.75;;;4.65;;
63032;SDS011;49121;38.932;-9.018;2023-03-03T00:42:18;11.57;;;4.10;;
63032;SDS011;49121;38.932;-9.018;2023-03-03T00:44:30;8.35;;;4.40;;
63032;SDS011;49121;38.932;-9.018;2023-03-03T00:46:40;9.48;;;4.22;;
63032;SDS011;49121;38.932;-9.018;2023-03-03T00:48:59;7.65;;;4.55;;
63032;SDS011;49121;38.932;-9.018;2023-03-03T00:51:01;13.82;;;4.47;;
63032;SDS011;49121;38.932;-9.018;2023-03-03T00:53:14;9.20;;;4.38;;
63032;SDS011;49121;38.932;-9.018;2023-03-03T00:55:19;13.93;;;5.82;;
63032;SDS011;49121;38.932;-9.018;2023-03-03T00:57:20;10.10;;;4.60;;
63032;SDS011;49121;38.932;-9.018;2023-03-03T00:59:21;8.27;;;4.60;;
63032;SDS011;49121;38.932;-9.018;2023-03-03T01:01:21;8.15;;;4.13;;
63032;SDS011;49121;38.932;-9.018;2023-03-03T01:03:26;12.15;;;4.38;;
63032;SDS011;49121;38.932;-9.018;2023-03-03T01:05:27;7.82;;;5.15;;
63032;SDS011;49121;38.932;-9.018;2023-03-03T01:07:47;10.13;;;4.80;;
63032;SDS011;49121;38.932;-9.018;2023-03-03T01:10:06;9.75;;;4.75;;
63032;SDS011;49121;38.932;-9.018;2023-03-03T01:12:08;11.60;;;4.63;;
63032;SDS011;49121;38.932;-9.018;2023-03-03T01:14:09;7.65;;;4.13;;
63032;SDS011;49121;38.932;-9.018;2023-03-03T01:16:10;10.40;;;4.60;;
63032;SDS011;49121;38.932;-9.018;2023-03-03T01:18:11;6.15;;;4.22;;
63032;SDS011;49121;38.932;-9.018;2023-03-03T01:20:12;8.82;;;4.78;;
63032;SDS011;49121;38.932;-9.018;2023-03-03T01:22:14;6.78;;;3.88;;
63032;SDS011;49121;38.932;-9.018;2023-03-03T01:24:19;10.25;;;4.28;;
63032;SDS011;49121;38.932;-9.018;2023-03-03T01:26:20;8.18;;;4.10;;
63032;SDS011;49121;38.932;-9.018;2023-03-03T01:28:21;6.78;;;4.20;;
63032;SDS011;49121;38.932;-9.018;2023-03-03T01:30:22;6.60;;;3.95;;
63032;SDS011;49121;38.932;-9.018;2023-03-03T01:34:24;7.95;;;3.70;;
63032;SDS011;49121;38.932;-9.018;2023-03-03T01:36:26;7.25;;;4.38;;
63032;SDS011;49121;38.932;-9.018;2023-03-03T01:38:27;13.23;;;4.65;;
63032;SDS011;49121;38.932;-9.018;2023-03-03T01:40:29;7.25;;;3.78;;
63032;SDS011;49121;38.932;-9.018;2023-03-03T01:42:30;8.32;;;4.40;;
63032;SDS011;49121;38.932;-9.018;2023-03-03T01:44:33;9.45;;;4.43;;
63032;SDS011;49121;38.932;-9.018;2023-03-03T01:48:38;5.15;;;4.13;;
63032;SDS011;49121;38.932;-9.018;2023-03-03T01:51:01;8.13;;;3.83;;
63032;SDS011;49121;38.932;-9.018;2023-03-03T01:53:05;7.50;;;4.20;;
63032;SDS011;49121;38.932;-9.018;2023-03-03T01:55:14;8.68;;;4.45;;
63032;SDS011;49121;38.932;-9.018;2023-03-03T01:57:26;10.70;;;4.68;;
63032;SDS011;49121;38.932;-9.018;2023-03-03T01:59:36;8.82;;;4.35;;
63032;SDS011;49121;38.932;-9.018;2023-03-03T02:01:42;7.63;;;4.60;;
63032;SDS011;49121;38.932;-9.018;2023-03-03T02:03:43;10.55;;;4.53;;
63032;SDS011;49121;38.932;-9.018;2023-03-03T02:07:45;10.63;;;4.50;;
63032;SDS011;49121;38.932;-9.018;2023-03-03T02:12:10;6.85;;;4.32;;
63032;SDS011;49121;38.932;-9.018;2023-03-03T02:14:13;9.88;;;4.30;;
63032;SDS011;49121;38.932;-9.018;2023-03-03T02:16:16;7.68;;;4.35;;
63032;SDS011;49121;38.932;-9.018;2023-03-03T02:18:19;5.85;;;3.80;;
63032;SDS011;49121;38.932;-9.018;2023-03-03T02:20:27;8.15;;;4.07;;
63032;SDS011;49121;38.932;-9.018;2023-03-03T02:22:40;11.25;;;4.10;;
63032;SDS011;49121;38.932;-9.018;2023-03-03T02:25:01;7.80;;;3.95;;
63032;SDS011;49121;38.932;-9.018;2023-03-03T02:27:04;8.88;;;4.30;;
63032;SDS011;49121;38.932;-9.018;2023-03-03T02:29:06;7.13;;;3.92;;
63032;SDS011;49121;38.932;-9.018;2023-03-03T02:31:12;7.25;;;3.85;;
63032;SDS011;49121;38.932;-9.018;2023-03-03T02:33:16;8.02;;;4.35;;
63032;SDS011;49121;38.932;-9.018;2023-03-03T02:35:27;8.25;;;4.13;;
63032;SDS011;49121;38.932;-9.018;2023-03-03T02:37:33;6.95;;;4.30;;
63032;SDS011;49121;38.932;-9.018;2023-03-03T02:41:40;10.93;;;4.07;;
63032;SDS011;49121;38.932;-9.018;2023-03-03T02:45:52;6.45;;;4.07;;
63032;SDS011;49121;38.932;-9.018;2023-03-03T02:47:53;10.77;;;4.90;;
63032;SDS011;49121;38.932;-9.018;2023-03-03T02:49:53;7.82;;;4.35;;
63032;SDS011;49121;38.932;-9.018;2023-03-03T02:51:54;7.50;;;3.97;;
63032;SDS011;49121;38.932;-9.018;2023-03-03T02:53:55;7.82;;;4.43;;
63032;SDS011;49121;38.932;-9.018;2023-03-03T02:55:57;8.50;;;3.97;;
63032;SDS011;49121;38.932;-9.018;2023-03-03T02:57:58;8.25;;;3.80;;
63032;SDS011;49121;38.932;-9.018;2023-03-03T03:00:00;9.25;;;3.70;;
63032;SDS011;49121;38.932;-9.018;2023-03-03T03:02:01;8.35;;;3.72;;
63032;SDS011;49121;38.932;-9.018;2023-03-03T03:04:06;7.43;;;3.88;;
63032;SDS011;49121;38.932;-9.018;2023-03-03T03:06:07;5.72;;;3.72;;
63032;SDS011;49121;38.932;-9.018;2023-03-03T03:10:09;7.90;;;3.97;;
63032;SDS011;49121;38.932;-9.018;2023-03-03T03:12:12;6.40;;;3.78;;
63032;SDS011;49121;38.932;-9.018;2023-03-03T03:16:34;6.65;;;3.80;;
63032;SDS011;49121;38.932;-9.018;2023-03-03T03:18:35;6.13;;;3.95;;
63032;SDS011;49121;38.932;-9.018;2023-03-03T03:20:36;7.80;;;4.40;;
63032;SDS011;49121;38.932;-9.018;2023-03-03T03:22:43;7.30;;;4.35;;
63032;SDS011;49121;38.932;-9.018;2023-03-03T03:24:44;6.75;;;3.35;;
63032;SDS011;49121;38.932;-9.018;2023-03-03T03:26:45;8.45;;;3.72;;
63032;SDS011;49121;38.932;-9.018;2023-03-03T03:28:49;6.03;;;3.45;;
63032;SDS011;49121;38.932;-9.018;2023-03-03T03:30:54;7.60;;;4.00;;
63032;SDS011;49121;38.932;-9.018;2023-03-03T03:32:56;6.03;;;3.28;;
63032;SDS011;49121;38.932;-9.018;2023-03-03T03:35:07;8.13;;;3.47;;
63032;SDS011;49121;38.932;-9.018;2023-03-03T03:37:09;6.90;;;3.40;;
63032;SDS011;49121;38.932;-9.018;2023-03-03T03:39:11;6.38;;;3.50;;
63032;SDS011;49121;38.932;-9.018;2023-03-03T03:41:15;7.68;;;3.70;;
63032;SDS011;49121;38.932;-9.018;2023-03-03T03:43:16;7.10;;;4.30;;
63032;SDS011;49121;38.932;-9.018;2023-03-03T03:45:18;8.25;;;3.70;;
63032;SDS011;49121;38.932;-9.018;2023-03-03T03:47:20;6.13;;;3.47;;
63032;SDS011;49121;38.932;-9.018;2023-03-03T03:49:21;7.85;;;2.95;;
63032;SDS011;49121;38.932;-9.018;2023-03-03T03:51:23;7.70;;;3.90;;
63032;SDS011;49121;38.932;-9.018;2023-03-03T03:55:25;7.00;;;4.07;;
63032;SDS011;49121;38.932;-9.018;2023-03-03T03:57:26;5.10;;;3.00;;
63032;SDS011;49121;38.932;-9.018;2023-03-03T04:01:28;10.40;;;4.23;;
63032;SDS011;49121;38.932;-9.018;2023-03-03T04:03:29;6.70;;;3.60;;
63032;SDS011;49121;38.932;-9.018;2023-03-03T04:05:30;5.45;;;3.35;;
63032;SDS011;49121;38.932;-9.018;2023-03-03T04:07:31;11.80;;;4.68;;
63032;SDS011;49121;38.932;-9.018;2023-03-03T04:09:32;8.98;;;3.63;;
63032;SDS011;49121;38.932;-9.018;2023-03-03T04:11:33;6.28;;;3.95;;
63032;SDS011;49121;38.932;-9.018;2023-03-03T04:13:33;9.13;;;4.05;;
63032;SDS011;49121;38.932;-9.018;2023-03-03T04:15:35;6.63;;;3.90;;
63032;SDS011;49121;38.932;-9.018;2023-03-03T04:17:36;8.30;;;4.18;;
63032;SDS011;49121;38.932;-9.018;2023-03-03T04:19:41;6.07;;;3.70;;
63032;SDS011;49121;38.932;-9.018;2023-03-03T04:21:43;6.93;;;4.88;;
63032;SDS011;49121;38.932;-9.018;2023-03-03T04:23:43;6.40;;;3.67;;
63032;SDS011;49121;38.932;-9.018;2023-03-03T04:25:47;6.93;;;4.07;;
63032;SDS011;49121;38.932;-9.018;2023-03-03T04:27:49;6.95;;;3.92;;
63032;SDS011;49121;38.932;-9.018;2023-03-03T04:29:52;7.00;;;4.22;;
63032;SDS011;49121;38.932;-9.018;2023-03-03T04:31:53;6.78;;;3.65;;
63032;SDS011;49121;38.932;-9.018;2023-03-03T04:36:16;5.97;;;3.72;;
63032;SDS011;49121;38.932;-9.018;2023-03-03T04:38:17;6.93;;;3.70;;
63032;SDS011;49121;38.932;-9.018;2023-03-03T04:40:19;5.93;;;3.67;;
63032;SDS011;49121;38.932;-9.018;2023-03-03T04:42:22;7.00;;;3.92;;
63032;SDS011;49121;38.932;-9.018;2023-03-03T04:44:23;5.47;;;3.35;;
63032;SDS011;49121;38.932;-9.018;2023-03-03T04:46:25;9.55;;;3.60;;
63032;SDS011;49121;38.932;-9.018;2023-03-03T04:48:26;10.82;;;4.20;;
63032;SDS011;49121;38.932;-9.018;2023-03-03T04:50:28;5.80;;;3.70;;
63032;SDS011;49121;38.932;-9.018;2023-03-03T04:52:29;7.57;;;4.03;;
63032;SDS011;49121;38.932;-9.018;2023-03-03T04:54:29;7.10;;;3.78;;
63032;SDS011;49121;38.932;-9.018;2023-03-03T04:56:30;9.30;;;4.15;;
63032;SDS011;49121;38.932;-9.018;2023-03-03T04:58:31;5.93;;;3.70;;
63032;SDS011;49121;38.932;-9.018;2023-03-03T05:00:32;7.65;;;3.92;;
63032;SDS011;49121;38.932;-9.018;2023-03-03T05:02:34;10.13;;;4.30;;
63032;SDS011;49121;38.932;-9.018;2023-03-03T05:04:35;7.43;;;3.80;;
63032;SDS011;49121;38.932;-9.018;2023-03-03T05:06:35;4.47;;;3.42;;
63032;SDS011;49121;38.932;-9.018;2023-03-03T05:08:36;5.07;;;3.50;;
63032;SDS011;49121;38.932;-9.018;2023-03-03T05:10:36;9.32;;;4.70;;
63032;SDS011;49121;38.932;-9.018;2023-03-03T05:12:38;6.65;;;4.03;;
63032;SDS011;49121;38.932;-9.018;2023-03-03T05:14:38;6.97;;;4.22;;
63032;SDS011;49121;38.932;-9.018;2023-03-03T05:19:21;8.60;;;4.28;;
63032;SDS011;49121;38.932;-9.018;2023-03-03T05:21:21;7.10;;;3.72;;
63032;SDS011;49121;38.932;-9.018;2023-03-03T05:23:22;6.20;;;3.67;;
63032;SDS011;49121;38.932;-9.018;2023-03-03T05:25:23;7.25;;;3.78;;
63032;SDS011;49121;38.932;-9.018;2023-03-03T05:27:23;6.32;;;3.42;;
63032;SDS011;49121;38.932;-9.018;2023-03-03T05:29:28;7.55;;;4.03;;
63032;SDS011;49121;38.932;-9.018;2023-03-03T05:31:30;10.40;;;4.30;;
63032;SDS011;49121;38.932;-9.018;2023-03-03T05:33:31;6.93;;;4.03;;
63032;SDS011;49121;38.932;-9.018;2023-03-03T05:35:32;8.02;;;4.30;;
63032;SDS011;49121;38.932;-9.018;2023-03-03T05:39:34;10.53;;;4.73;;
63032;SDS011;49121;38.932;-9.018;2023-03-03T05:43:54;10.50;;;3.88;;
63032;SDS011;49121;38.932;-9.018;2023-03-03T05:45:59;7.43;;;3.72;;
63032;SDS011;49121;38.932;-9.018;2023-03-03T05:48:00;7.95;;;3.95;;
63032;SDS011;49121;38.932;-9.018;2023-03-03T05:50:00;6.60;;;3.85;;
63032;SDS011;49121;38.932;-9.018;2023-03-03T05:52:01;8.77;;;3.88;;
63032;SDS011;49121;38.932;-9.018;2023-03-03T05:54:02;6.95;;;4.35;;
63032;SDS011;49121;38.932;-9.018;2023-03-03T05:56:02;6.22;;;3.40;;
63032;SDS011;49121;38.932;-9.018;2023-03-03T05:58:03;7.70;;;4.38;;
63032;SDS011;49121;38.932;-9.018;2023-03-03T06:00:04;8.18;;;3.65;;
63032;SDS011;49121;38.932;-9.018;2023-03-03T06:02:12;8.07;;;3.78;;
63032;SDS011;49121;38.932;-9.018;2023-03-03T06:04:13;8.48;;;4.60;;
63032;SDS011;49121;38.932;-9.018;2023-03-03T06:06:13;6.88;;;3.72;;
63032;SDS011;49121;38.932;-9.018;2023-03-03T06:08:16;7.15;;;4.28;;
63032;SDS011;49121;38.932;-9.018;2023-03-03T06:10:16;9.55;;;3.80;;
63032;SDS011;49121;38.932;-9.018;2023-03-03T06:12:21;7.82;;;4.15;;
63032;SDS011;49121;38.932;-9.018;2023-03-03T06:14:22;7.68;;;4.47;;
63032;SDS011;49121;38.932;-9.018;2023-03-03T06:16:23;7.68;;;4.25;;
63032;SDS011;49121;38.932;-9.018;2023-03-03T06:18:23;6.53;;;4.05;;
63032;SDS011;49121;38.932;-9.018;2023-03-03T06:20:24;6.28;;;3.70;;
63032;SDS011;49121;38.932;-9.018;2023-03-03T06:22:43;5.35;;;3.45;;
63032;SDS011;49121;38.932;-9.018;2023-03-03T06:25:06;10.32;;;3.97;;
63032;SDS011;49121;38.932;-9.018;2023-03-03T06:27:07;9.65;;;3.85;;
63032;SDS011;49121;38.932;-9.018;2023-03-03T06:29:09;9.80;;;4.00;;
63032;SDS011;49121;38.932;-9.018;2023-03-03T06:31:10;8.23;;;4.10;;
63032;SDS011;49121;38.932;-9.018;2023-03-03T06:33:10;9.15;;;4.40;;
63032;SDS011;49121;38.932;-9.018;2023-03-03T06:35:11;7.25;;;3.92;;
63032;SDS011;49121;38.932;-9.018;2023-03-03T06:37:12;7.18;;;3.75;;
63032;SDS011;49121;38.932;-9.018;2023-03-03T06:39:12;8.77;;;3.95;;
63032;SDS011;49121;38.932;-9.018;2023-03-03T06:41:13;6.82;;;4.07;;
63032;SDS011;49121;38.932;-9.018;2023-03-03T06:43:13;7.68;;;4.18;;
63032;SDS011;49121;38.932;-9.018;2023-03-03T06:45:14;7.53;;;3.80;;
63032;SDS011;49121;38.932;-9.018;2023-03-03T06:47:15;12.27;;;4.15;;
63032;SDS011;49121;38.932;-9.018;2023-03-03T06:49:16;8.40;;;4.03;;
63032;SDS011;49121;38.932;-9.018;2023-03-03T06:51:24;6.35;;;4.03;;
63032;SDS011;49121;38.932;-9.018;2023-03-03T06:53:37;6.85;;;3.60;;
63032;SDS011;49121;38.932;-9.018;2023-03-03T06:55:38;6.97;;;4.32;;
63032;SDS011;49121;38.932;-9.018;2023-03-03T06:57:43;6.47;;;3.72;;
63032;SDS011;49121;38.932;-9.018;2023-03-03T06:59:44;10.10;;;4.68;;
63032;SDS011;49121;38.932;-9.018;2023-03-03T07:06:32;9.27;;;4.32;;
63032;SDS011;49121;38.932;-9.018;2023-03-03T07:08:33;8.13;;;4.60;;
63032;SDS011;49121;38.932;-9.018;2023-03-03T07:10:35;8.57;;;4.68;;
63032;SDS011;49121;38.932;-9.018;2023-03-03T07:12:35;10.73;;;3.97;;
63032;SDS011;49121;38.932;-9.018;2023-03-03T07:14:41;8.38;;;4.90;;
63032;SDS011;49121;38.932;-9.018;2023-03-03T07:16:43;10.77;;;4.82;;
63032;SDS011;49121;38.932;-9.018;2023-03-03T07:18:51;11.30;;;4.57;;
63032;SDS011;49121;38.932;-9.018;2023-03-03T07:20:52;11.57;;;5.22;;
63032;SDS011;49121;38.932;-9.018;2023-03-03T07:22:53;5.95;;;3.88;;
63032;SDS011;49121;38.932;-9.018;2023-03-03T07:24:54;8.85;;;4.20;;
63032;SDS011;49121;38.932;-9.018;2023-03-03T07:27:08;6.63;;;3.80;;
63032;SDS011;49121;38.932;-9.018;2023-03-03T07:31:46;9.88;;;4.32;;
63032;SDS011;49121;38.932;-9.018;2023-03-03T07:33:48;8.07;;;4.65;;
63032;SDS011;49121;38.932;-9.018;2023-03-03T07:35:48;9.20;;;4.50;;
63032;SDS011;49121;38.932;-9.018;2023-03-03T07:37:49;11.77;;;4.53;;
63032;SDS011;49121;38.932;-9.018;2023-03-03T07:39:50;11.27;;;4.93;;
63032;SDS011;49121;38.932;-9.018;2023-03-03T07:41:51;10.27;;;5.63;;
63032;SDS011;49121;38.932;-9.018;2023-03-03T07:44:12;7.50;;;4.75;;
63032;SDS011;49121;38.932;-9.018;2023-03-03T07:46:40;12.45;;;5.22;;
63032;SDS011;49121;38.932;-9.018;2023-03-03T07:48:42;16.65;;;8.50;;
63032;SDS011;49121;38.932;-9.018;2023-03-03T07:50:43;13.13;;;8.20;;
63032;SDS011;49121;38.932;-9.018;2023-03-03T07:52:49;23.35;;;7.93;;
63032;SDS011;49121;38.932;-9.018;2023-03-03T07:54:58;18.25;;;10.38;;
63032;SDS011;49121;38.932;-9.018;2023-03-03T07:57:06;21.77;;;10.90;;
63032;SDS011;49121;38.932;-9.018;2023-03-03T07:59:22;22.85;;;10.52;;
63032;SDS011;49121;38.932;-9.018;2023-03-03T08:01:30;20.58;;;8.70;;
63032;SDS011;49121;38.932;-9.018;2023-03-03T08:03:38;18.88;;;9.50;;
63032;SDS011;49121;38.932;-9.018;2023-03-03T08:05:57;34.97;;;11.15;;
63032;SDS011;49121;38.932;-9.018;2023-03-03T08:10:38;27.02;;;11.05;;
63032;SDS011;49121;38.932;-9.018;2023-03-03T08:12:47;20.75;;;9.38;;
63032;SDS011;49121;38.932;-9.018;2023-03-03T08:14:48;17.98;;;8.15;;
63032;SDS011;49121;38.932;-9.018;2023-03-03T08:16:51;20.83;;;8.18;;
63032;SDS011;49121;38.932;-9.018;2023-03-03T08:18:53;12.13;;;7.72;;
63032;SDS011;49121;38.932;-9.018;2023-03-03T08:21:12;11.65;;;6.50;;
63032;SDS011;49121;38.932;-9.018;2023-03-03T08:23:16;41.08;;;7.97;;
63032;SDS011;49121;38.932;-9.018;2023-03-03T08:25:19;24.02;;;7.97;;
63032;SDS011;49121;38.932;-9.018;2023-03-03T08:29:22;17.00;;;7.75;;
63032;SDS011;49121;38.932;-9.018;2023-03-03T08:33:23;15.20;;;6.63;;
63032;SDS011;49121;38.932;-9.018;2023-03-03T08:37:24;16.57;;;7.90;;
63032;SDS011;49121;38.932;-9.018;2023-03-03T08:41:25;16.37;;;9.27;;
63032;SDS011;49121;38.932;-9.018;2023-03-03T08:45:27;15.25;;;6.53;;
63032;SDS011;49121;38.932;-9.018;2023-03-03T08:47:28;11.00;;;6.43;;
63032;SDS011;49121;38.932;-9.018;2023-03-03T08:51:30;10.70;;;6.40;;
63032;SDS011;49121;38.932;-9.018;2023-03-03T08:53:33;14.63;;;6.30;;
63032;SDS011;49121;38.932;-9.018;2023-03-03T08:55:37;12.00;;;7.05;;
63032;SDS011;49121;38.932;-9.018;2023-03-03T08:57:38;10.45;;;6.07;;
63032;SDS011;49121;38.932;-9.018;2023-03-03T08:59:45;18.02;;;7.38;;
63032;SDS011;49121;38.932;-9.018;2023-03-03T09:01:47;15.35;;;8.32;;
63032;SDS011;49121;38.932;-9.018;2023-03-03T09:05:48;11.53;;;7.63;;
63032;SDS011;49121;38.932;-9.018;2023-03-03T09:09:50;18.83;;;9.07;;
63032;SDS011;49121;38.932;-9.018;2023-03-03T09:14:06;13.25;;;7.85;;
63032;SDS011;49121;38.932;-9.018;2023-03-03T09:16:14;20.13;;;7.75;;
63032;SDS011;49121;38.932;-9.018;2023-03-03T09:18:17;16.20;;;9.30;;
63032;SDS011;49121;38.932;-9.018;2023-03-03T09:20:29;14.93;;;9.82;;
63032;SDS011;49121;38.932;-9.018;2023-03-03T09:22:35;19.77;;;9.10;;
63032;SDS011;49121;38.932;-9.018;2023-03-03T09:24:37;9.95;;;6.95;;
63032;SDS011;49121;38.932;-9.018;2023-03-03T09:28:38;15.63;;;7.53;;
63032;SDS011;49121;38.932;-9.018;2023-03-03T09:32:45;14.05;;;7.18;;
63032;SDS011;49121;38.932;-9.018;2023-03-03T09:34:46;15.65;;;8.93;;
63032;SDS011;49121;38.932;-9.018;2023-03-03T09:36:47;11.30;;;7.45;;
63032;SDS011;49121;38.932;-9.018;2023-03-03T09:38:48;9.68;;;7.07;;
63032;SDS011;49121;38.932;-9.018;2023-03-03T09:40:56;10.75;;;7.07;;
63032;SDS011;49121;38.932;-9.018;2023-03-03T09:45:17;11.48;;;6.95;;
63032;SDS011;49121;38.932;-9.018;2023-03-03T09:47:34;13.57;;;7.43;;
63032;SDS011;49121;38.932;-9.018;2023-03-03T09:52:10;21.58;;;8.40;;
63032;SDS011;49121;38.932;-9.018;2023-03-03T09:56:38;14.27;;;7.90;;
63032;SDS011;49121;38.932;-9.018;2023-03-03T09:59:11;15.43;;;8.30;;
63032;SDS011;49121;38.932;-9.018;2023-03-03T10:02:02;15.98;;;8.45;;
63032;SDS011;49121;38.932;-9.018;2023-03-03T10:21:26;15.52;;;8.00;;
63032;SDS011;49121;38.932;-9.018;2023-03-03T10:25:59;12.52;;;7.30;;
63032;SDS011;49121;38.932;-9.018;2023-03-03T10:30:57;15.45;;;7.75;;
63032;SDS011;49121;38.932;-9.018;2023-03-03T10:48:17;14.77;;;7.63;;
63032;SDS011;49121;38.932;-9.018;2023-03-03T10:50:26;19.40;;;8.10;;
63032;SDS011;49121;38.932;-9.018;2023-03-03T10:52:37;25.15;;;7.72;;
63032;SDS011;49121;38.932;-9.018;2023-03-03T10:59:15;16.92;;;8.38;;
63032;SDS011;49121;38.932;-9.018;2023-03-03T11:06:00;21.60;;;8.80;;
63032;SDS011;49121;38.932;-9.018;2023-03-03T11:08:19;20.38;;;8.75;;
63032;SDS011;49121;38.932;-9.018;2023-03-03T11:12:48;17.58;;;8.65;;
63032;SDS011;49121;38.932;-9.018;2023-03-03T11:15:33;15.88;;;8.93;;
63032;SDS011;49121;38.932;-9.018;2023-03-03T11:20:07;16.25;;;7.97;;
63032;SDS011;49121;38.932;-9.018;2023-03-03T11:31:46;15.38;;;8.40;;
63032;SDS011;49121;38.932;-9.018;2023-03-03T11:36:27;16.77;;;8.25;;
63032;SDS011;49121;38.932;-9.018;2023-03-03T11:40:51;19.90;;;9.38;;
63032;SDS011;49121;38.932;-9.018;2023-03-03T11:45:18;16.58;;;8.57;;
63032;SDS011;49121;38.932;-9.018;2023-03-03T11:54:14;17.63;;;8.52;;
63032;SDS011;49121;38.932;-9.018;2023-03-03T11:56:29;11.55;;;7.38;;
63032;SDS011;49121;38.932;-9.018;2023-03-03T11:58:44;12.73;;;7.38;;
63032;SDS011;49121;38.932;-9.018;2023-03-03T12:00:56;13.52;;;7.43;;
63032;SDS011;49121;38.932;-9.018;2023-03-03T12:10:36;12.80;;;6.80;;
63032;SDS011;49121;38.932;-9.018;2023-03-03T12:12:41;15.07;;;7.93;;
63032;SDS011;49121;38.932;-9.018;2023-03-03T12:26:49;9.10;;;5.75;;
63032;SDS011;49121;38.932;-9.018;2023-03-03T12:29:18;13.32;;;6.38;;
63032;SDS011;49121;38.932;-9.018;2023-03-03T12:31:32;11.35;;;5.30;;
63032;SDS011;49121;38.932;-9.018;2023-03-03T12:33:54;13.02;;;6.18;;
63032;SDS011;49121;38.932;-9.018;2023-03-03T12:38:37;11.32;;;5.50;;
63032;SDS011;49121;38.932;-9.018;2023-03-03T12:40:58;11.40;;;5.13;;
63032;SDS011;49121;38.932;-9.018;2023-03-03T12:43:30;9.25;;;5.05;;
63032;SDS011;49121;38.932;-9.018;2023-03-03T12:47:48;10.38;;;6.40;;
63032;SDS011;49121;38.932;-9.018;2023-03-03T12:52:42;10.55;;;5.80;;
63032;SDS011;49121;38.932;-9.018;2023-03-03T12:56:43;8.63;;;5.70;;
63032;SDS011;49121;38.932;-9.018;2023-03-03T13:01:21;14.15;;;6.70;;
63032;SDS011;49121;38.932;-9.018;2023-03-03T13:03:48;15.75;;;6.35;;
63032;SDS011;49121;38.932;-9.018;2023-03-03T13:06:10;19.25;;;6.95;;
63032;SDS011;49121;38.932;-9.018;2023-03-03T13:21:00;10.10;;;5.60;;
63032;SDS011;49121;38.932;-9.018;2023-03-03T13:25:55;14.85;;;6.43;;
63032;SDS011;49121;38.932;-9.018;2023-03-03T13:28:10;9.27;;;6.47;;
63032;SDS011;49121;38.932;-9.018;2023-03-03T13:30:24;9.68;;;6.10;;
63032;SDS011;49121;38.932;-9.018;2023-03-03T13:32:50;9.48;;;6.28;;
63032;SDS011;49121;38.932;-9.018;2023-03-03T13:35:04;11.45;;;7.30;;
63032;SDS011;49121;38.932;-9.018;2023-03-03T13:37:14;12.45;;;6.25;;
63032;SDS011;49121;38.932;-9.018;2023-03-03T13:39:26;14.32;;;6.25;;
63032;SDS011;49121;38.932;-9.018;2023-03-03T13:41:37;11.10;;;5.93;;
63032;SDS011;49121;38.932;-9.018;2023-03-03T13:46:26;11.20;;;5.80;;
63032;SDS011;49121;38.932;-9.018;2023-03-03T13:55:20;15.40;;;6.55;;
63032;SDS011;49121;38.932;-9.018;2023-03-03T14:06:16;8.70;;;5.57;;
63032;SDS011;49121;38.932;-9.018;2023-03-03T14:08:24;8.95;;;5.45;;
63032;SDS011;49121;38.932;-9.018;2023-03-03T14:10:47;14.53;;;5.63;;
63032;SDS011;49121;38.932;-9.018;2023-03-03T14:13:17;10.45;;;6.55;;
63032;SDS011;49121;38.932;-9.018;2023-03-03T14:15:25;13.43;;;6.15;;
63032;SDS011;49121;38.932;-9.018;2023-03-03T14:17:41;13.15;;;6.60;;
63032;SDS011;49121;38.932;-9.018;2023-03-03T14:19:47;11.50;;;5.75;;
63032;SDS011;49121;38.932;-9.018;2023-03-03T14:24:53;17.35;;;6.97;;
63032;SDS011;49121;38.932;-9.018;2023-03-03T14:32:23;13.02;;;6.15;;
63032;SDS011;49121;38.932;-9.018;2023-03-03T14:36:35;14.10;;;5.68;;
63032;SDS011;49121;38.932;-9.018;2023-03-03T14:38:40;11.57;;;6.25;;
63032;SDS011;49121;38.932;-9.018;2023-03-03T14:40:46;18.58;;;6.65;;
63032;SDS011;49121;38.932;-9.018;2023-03-03T14:44:54;9.85;;;6.18;;
63032;SDS011;49121;38.932;-9.018;2023-03-03T14:51:38;14.65;;;6.20;;
63032;SDS011;49121;38.932;-9.018;2023-03-03T14:53:47;11.75;;;5.80;;
63032;SDS011;49121;38.932;-9.018;2023-03-03T14:55:50;11.20;;;6.38;;
63032;SDS011;49121;38.932;-9.018;2023-03-03T14:58:25;10.63;;;5.63;;
63032;SDS011;49121;38.932;-9.018;2023-03-03T15:00:32;14.95;;;6.30;;
63032;SDS011;49121;38.932;-9.018;2023-03-03T15:02:42;14.95;;;6.35;;
63032;SDS011;49121;38.932;-9.018;2023-03-03T15:07:34;15.18;;;6.28;;
63032;SDS011;49121;38.932;-9.018;2023-03-03T15:09:38;13.07;;;6.03;;
63032;SDS011;49121;38.932;-9.018;2023-03-03T15:11:52;12.85;;;5.78;;
63032;SDS011;49121;38.932;-9.018;2023-03-03T15:14:03;20.50;;;6.15;;
63032;SDS011;49121;38.932;-9.018;2023-03-03T15:16:17;12.27;;;6.28;;
63032;SDS011;49121;38.932;-9.018;2023-03-03T15:18:22;15.82;;;7.18;;
63032;SDS011;49121;38.932;-9.018;2023-03-03T15:22:53;15.88;;;6.93;;
63032;SDS011;49121;38.932;-9.018;2023-03-03T15:25:23;14.73;;;6.82;;
63032;SDS011;49121;38.932;-9.018;2023-03-03T15:27:44;11.32;;;6.25;;
63032;SDS011;49121;38.932;-9.018;2023-03-03T15:42:15;19.13;;;6.63;;
63032;SDS011;49121;38.932;-9.018;2023-03-03T15:47:30;18.55;;;7.78;;
63032;SDS011;49121;38.932;-9.018;2023-03-03T15:54:25;14.95;;;6.45;;
63032;SDS011;49121;38.932;-9.018;2023-03-03T15:56:36;14.93;;;6.90;;
63032;SDS011;49121;38.932;-9.018;2023-03-03T16:01:25;12.05;;;6.25;;
63032;SDS011;49121;38.932;-9.018;2023-03-03T16:03:30;14.88;;;5.97;;
63032;SDS011;49121;38.932;-9.018;2023-03-03T16:08:08;15.85;;;6.07;;
63032;SDS011;49121;38.932;-9.018;2023-03-03T16:12:56;15.60;;;5.25;;
63032;SDS011;49121;38.932;-9.018;2023-03-03T16:17:28;13.07;;;5.20;;
63032;SDS011;49121;38.932;-9.018;2023-03-03T16:24:29;9.90;;;3.97;;
63032;SDS011;49121;38.932;-9.018;2023-03-03T16:31:18;11.52;;;3.53;;
63032;SDS011;49121;38.932;-9.018;2023-03-03T16:38:23;10.82;;;3.28;;
63032;SDS011;49121;38.932;-9.018;2023-03-03T16:43:31;9.68;;;3.22;;
63032;SDS011;49121;38.932;-9.018;2023-03-03T16:45:25;8.52;;;3.22;;
63032;SDS011;49121;38.932;-9.018;2023-03-03T16:50:14;10.77;;;3.35;;
63032;SDS011;49121;38.932;-9.018;2023-03-03T16:52:33;8.85;;;2.88;;
63032;SDS011;49121;38.932;-9.018;2023-03-03T16:54:45;12.70;;;4.75;;
63032;SDS011;49121;38.932;-9.018;2023-03-03T17:01:27;8.35;;;3.42;;
63032;SDS011;49121;38.932;-9.018;2023-03-03T17:03:34;10.07;;;3.80;;
63032;SDS011;49121;38.932;-9.018;2023-03-03T17:15:03;9.55;;;3.80;;
63032;SDS011;49121;38.932;-9.018;2023-03-03T17:17:16;8.80;;;3.25;;
63032;SDS011;49121;38.932;-9.018;2023-03-03T17:19:52;10.38;;;3.50;;
63032;SDS011;49121;38.932;-9.018;2023-03-03T17:47:12;7.60;;;4.10;;
63032;SDS011;49121;38.932;-9.018;2023-03-03T17:49:30;9.75;;;3.92;;
63032;SDS011;49121;38.932;-9.018;2023-03-03T18:03:24;8.52;;;4.03;;